Avalon, Victoria

1:12 PM EST on September 03, 2014 (GMT +1000)
Avalon | Change Station
CLOSE
Current Station
Airport
Location: Avalon,
Elevation: 33 ft
Nearby Weather Stations

Elev 33 ft 38.03 °S, 144.48 °E | Updated 12 minutes ago

Mostly Cloudy
Mostly Cloudy
57 °F
Feels Like 57 °F
N
12
Wind Variable Wind from SSW

Today
High -- | Low -- °F
--% Chance of Precip.
Yesterday
High -- | Low -- °F
Precip. -- in
6:41 AM 6:02 PM
First Quarter, 57% visible
Pressure 30.15 in
Visibility 6.2 miles
Clouds Mostly Cloudy 5000 ft
Dew Point 43 °F
Humidity 59%
Rainfall 0.00 in
Snow Depth Not available.
UV 4 out of 12
Pollen Not available.
Air Quality Not available.
Flu Activity Not available.
METAR YMAV 030300Z AUTO 20010KT 9999 // BKN050 14/06 Q1021

More Conditions Fewer Conditions

Pressure 30.15 in
Visibility 6.2 miles
Clouds Mostly Cloudy 5000 ft
Dew Point 43 °F
Humidity 59%
Rainfall 0.00 in
Snow Depth Not available.
UV 4 out of 12
Pollen Not available.
Air Quality Not available.
Flu Activity Not available.
METAR YMAV 030300Z AUTO 20010KT 9999 // BKN050 14/06 Q1021

More Conditions Fewer Conditions

10-Day Weather Forecast

Almanac

Astronomy

Sep. 03, 2014 Rise Set
Actual Time 6:41 AM EST 6:02 PM EST
Civil Twilight 6:15 AM EST 6:28 PM EST
Nautical Twilight 5:44 AM EST 6:59 PM EST
Astronomical Twilight 5:14 AM EST 7:29 PM EST
Moon 11:44 AM EST 1:19 AM EST
Length of Visible Light 12h 13m
Length of Day
11h 20m
Tomorrow will be 2m 21s longer.
First Quarter, 57% of the Moon is Illuminated
Sep 2
First Quarter
Sep 8
Full
Sep 15
Last Quarter
Sep 24
New
Oct 1
First Quarter

Yesterday's Extremes

Country Highs Country Lows

Community

WunderPhotos

Upload Photos

1,749,862 photos uploaded!

Nearby

Snow Depth

Not available.

Earthquake Activity

City Distance Mag. Time & Date
No recent earthquake activity has been reported nearby.
Minimum magnitude displayed is 2.5.

Coastal Water Temperatures

Place Temperature
No Stations Reporting

Nearby Weather Stations